Time;durP1;ratioP1;P1;durP2;ratioP2;P2;SDS_P1;SDS_P2;PMS_P1;PMS_P2;Temp;Humidity;BMP_temperature;BMP_pressure;BME280_temperature;BME280_humidity;BME280_pressure;Samples;Min_cycle;Max_cycle;Signal;HPM_P1;HPM_P2
2022/04/22 00:00:08;;;;;;;11.60;6.88;;;11.00;76.00;;;;;;5115645;28;20373;-77
2022/04/22 00:02:35;;;;;;;13.27;7.15;;;11.00;75.60;;;;;;5098364;28;20043;-77
2022/04/22 00:05:01;;;;;;;12.70;6.53;;;11.10;75.30;;;;;;5115343;28;20047;-78
2022/04/22 00:07:28;;;;;;;8.75;6.57;;;11.00;75.40;;;;;;5098413;28;20043;-78
2022/04/22 00:09:55;;;;;;;8.25;5.78;;;11.00;75.20;;;;;;5115512;28;20093;-77
2022/04/22 00:12:21;;;;;;;11.13;6.65;;;11.00;75.30;;;;;;5098385;28;20035;-76
2022/04/22 00:14:46;;;;;;;8.88;5.88;;;10.90;75.70;;;;;;5115089;28;20124;-77
2022/04/22 00:17:12;;;;;;;12.65;7.78;;;10.80;75.60;;;;;;5115528;28;20050;-76
2022/04/22 00:19:38;;;;;;;10.75;7.60;;;10.90;75.80;;;;;;5115225;28;20044;-77
2022/04/22 00:22:04;;;;;;;9.90;7.25;;;10.80;75.80;;;;;;5114464;28;20047;-77
2022/04/22 00:24:29;;;;;;;11.18;6.90;;;10.70;76.20;;;;;;5096969;28;20082;-77
2022/04/22 00:26:55;;;;;;;11.10;7.10;;;10.70;75.90;;;;;;5096783;28;20067;-77
2022/04/22 00:29:21;;;;;;;10.18;6.88;;;10.60;76.40;;;;;;5113333;28;20035;-78
2022/04/22 00:31:46;;;;;;;11.52;7.43;;;10.60;76.40;;;;;;5096815;28;20108;-78
2022/04/22 00:34:12;;;;;;;11.48;7.75;;;10.50;76.00;;;;;;5096732;28;20035;-77
2022/04/22 00:36:38;;;;;;;12.23;7.63;;;10.50;76.40;;;;;;5113526;28;20097;-78
2022/04/22 00:39:03;;;;;;;10.80;7.70;;;10.40;76.50;;;;;;5096723;28;20067;-78
2022/04/22 00:41:29;;;;;;;12.50;7.70;;;10.40;76.60;;;;;;5113438;28;20043;-77
2022/04/22 00:43:55;;;;;;;14.05;8.25;;;10.40;76.40;;;;;;5113516;28;20092;-78
2022/04/22 00:46:21;;;;;;;11.48;7.30;;;10.30;76.40;;;;;;5096502;28;20126;-78
2022/04/22 00:48:47;;;;;;;11.02;6.65;;;10.30;76.70;;;;;;5113448;28;20036;-78
2022/04/22 00:51:13;;;;;;;13.25;7.20;;;10.20;77.10;;;;;;5113595;28;20040;-78
2022/04/22 00:53:45;;;;;;;13.02;8.07;;;10.20;77.40;;;;;;5113381;28;20040;-78
2022/04/22 00:56:11;;;;;;;9.93;7.72;;;10.30;77.10;;;;;;5113502;28;20039;-78
2022/04/22 00:58:43;;;;;;;11.40;7.75;;;10.20;77.70;;;;;;5113189;28;20119;-77
2022/04/22 01:01:09;;;;;;;14.43;7.80;;;10.20;77.40;;;;;;5113193;28;20032;-78
2022/04/22 01:03:35;;;;;;;15.15;7.85;;;10.20;77.40;;;;;;5113307;28;20035;-78
2022/04/22 01:11:35;;;;;;;12.55;7.63;;;10.10;79.00;;;;;;5113072;28;19962;-78
2022/04/22 01:14:02;;;;;;;13.57;7.40;;;10.00;78.50;;;;;;5113362;28;20052;-78
2022/04/22 01:16:28;;;;;;;10.60;8.00;;;10.00;78.50;;;;;;5095998;28;20047;-78
2022/04/22 01:18:55;;;;;;;12.73;8.32;;;10.00;78.40;;;;;;5112968;28;20549;-78
2022/04/22 01:21:21;;;;;;;9.95;6.75;;;10.00;78.70;;;;;;5061970;27;553595;-78
2022/04/22 01:23:47;;;;;;;11.55;8.48;;;10.00;78.10;;;;;;5100295;27;20483;-78
2022/04/22 01:26:13;;;;;;;12.00;8.18;;;10.00;78.70;;;;;;5100223;27;20050;-78
2022/04/22 01:28:40;;;;;;;11.02;7.65;;;9.90;78.30;;;;;;5100227;27;20039;-78
2022/04/22 01:31:06;;;;;;;12.05;7.95;;;9.80;78.70;;;;;;5117312;27;20046;-78
2022/04/22 01:33:32;;;;;;;10.98;7.32;;;9.80;78.60;;;;;;5100146;27;20031;-78
2022/04/22 01:35:58;;;;;;;14.30;8.75;;;9.80;78.20;;;;;;5117174;27;20035;-78
2022/04/22 01:38:24;;;;;;;14.10;8.10;;;9.80;78.20;;;;;;5117324;27;20039;-78
2022/04/22 01:40:49;;;;;;;10.52;8.35;;;9.70;78.50;;;;;;5098983;27;20478;-78
2022/04/22 01:43:15;;;;;;;8.30;7.30;;;9.70;78.60;;;;;;5100116;27;20096;-78
2022/04/22 01:45:41;;;;;;;9.30;6.95;;;9.60;78.60;;;;;;5116720;27;20058;-79
2022/04/22 01:48:07;;;;;;;10.18;7.72;;;9.60;78.50;;;;;;5099755;27;20131;-78
2022/04/22 01:50:33;;;;;;;14.40;7.72;;;9.60;78.60;;;;;;5116742;27;20039;-78
2022/04/22 01:52:59;;;;;;;12.80;7.32;;;9.60;78.50;;;;;;5099757;27;20031;-77
2022/04/22 01:55:26;;;;;;;9.80;5.95;;;9.60;78.60;;;;;;5116527;27;20089;-78
2022/04/22 01:57:53;;;;;;;10.85;7.80;;;9.60;78.50;;;;;;5116530;27;20487;-78
2022/04/22 02:00:19;;;;;;;13.85;9.13;;;9.60;78.70;;;;;;5116658;27;20479;-77
2022/04/22 02:02:44;;;;;;;11.40;6.80;;;9.60;78.90;;;;;;5116546;27;20043;-77
2022/04/22 02:05:10;;;;;;;9.95;8.23;;;9.60;78.50;;;;;;5116318;27;20064;-78
2022/04/22 02:07:36;;;;;;;11.82;7.00;;;9.50;79.30;;;;;;5099482;27;20039;-78
2022/04/22 02:10:02;;;;;;;14.30;8.18;;;9.60;78.60;;;;;;5099804;27;20095;-78
2022/04/22 02:12:28;;;;;;;9.88;7.47;;;9.60;78.50;;;;;;5116619;27;20369;-78
2022/04/22 02:14:53;;;;;;;15.48;8.30;;;9.60;79.00;;;;;;5099332;27;20046;-78
2022/04/22 02:17:19;;;;;;;10.75;7.95;;;9.60;79.00;;;;;;5099191;27;20039;-78
2022/04/22 02:19:45;;;;;;;18.50;11.05;;;9.60;79.00;;;;;;5099112;27;20399;-78
2022/04/22 02:22:10;;;;;;;11.60;7.93;;;9.50;79.30;;;;;;5095734;28;20101;-78
2022/04/22 02:24:36;;;;;;;12.68;7.68;;;9.50;78.80;;;;;;5095745;28;20039;-78
2022/04/22 02:29:46;;;;;;;;;;;9.40;78.80;;;;;;5113024;28;20055;-78
2022/04/22 02:32:12;;;;;;;12.80;8.43;;;9.30;79.80;;;;;;5112864;28;19915;-79
2022/04/22 02:34:38;;;;;;;14.70;8.20;;;9.30;79.00;;;;;;5095826;28;20102;-78
2022/04/22 02:37:03;;;;;;;11.38;7.68;;;9.20;79.90;;;;;;5112795;28;20130;-78
2022/04/22 02:39:29;;;;;;;11.27;7.72;;;9.20;79.30;;;;;;5112669;28;20035;-78
2022/04/22 02:47:23;;;;;;;13.30;7.88;;;9.10;79.70;;;;;;5098013;28;20048;-77
2022/04/22 02:49:49;;;;;;;11.45;7.70;;;9.10;79.60;;;;;;5112452;28;20126;-78
2022/04/22 02:52:15;;;;;;;8.48;6.25;;;9.00;79.90;;;;;;5112126;28;20044;-78
2022/04/22 02:54:41;;;;;;;10.32;6.80;;;9.00;79.70;;;;;;5112557;28;20437;-78
2022/04/22 02:57:08;;;;;;;11.55;6.72;;;9.00;79.40;;;;;;5112224;28;20039;-77
2022/04/22 02:59:39;;;;;;;8.70;6.07;;;9.00;79.60;;;;;;5112210;28;20039;-78
2022/04/22 03:02:08;;;;;;;11.73;6.90;;;9.00;79.20;;;;;;5095914;28;20036;-78
2022/04/22 03:04:34;;;;;;;10.52;7.00;;;9.00;79.10;;;;;;5112521;28;20418;-78
2022/04/22 03:07:00;;;;;;;10.07;6.60;;;9.00;79.10;;;;;;5095398;28;20054;-78
2022/04/22 03:09:25;;;;;;;10.40;6.40;;;9.00;79.30;;;;;;5095108;28;20402;-78
2022/04/22 03:11:51;;;;;;;12.18;6.75;;;9.00;79.40;;;;;;5112053;28;20043;-78
2022/04/22 03:14:18;;;;;;;11.55;6.40;;;9.00;79.50;;;;;;5095508;28;20035;-78
2022/04/22 03:16:44;;;;;;;9.07;6.75;;;9.00;79.70;;;;;;5078589;28;20039;-78
2022/04/22 03:19:10;;;;;;;10.68;6.18;;;9.00;79.40;;;;;;5112099;28;20047;-78
2022/04/22 03:21:36;;;;;;;10.77;6.30;;;9.00;80.00;;;;;;5097742;27;20040;-78
2022/04/22 03:24:02;;;;;;;11.93;6.00;;;9.00;79.60;;;;;;5115422;28;20080;-78
2022/04/22 03:26:28;;;;;;;8.38;6.40;;;8.90;79.30;;;;;;5115252;28;20039;-77
2022/04/22 03:28:54;;;;;;;10.07;6.88;;;8.90;80.00;;;;;;5115272;28;20039;-78
2022/04/22 03:31:20;;;;;;;9.07;6.20;;;8.90;79.70;;;;;;5115269;28;20051;-78
2022/04/22 03:33:45;;;;;;;8.88;6.43;;;8.90;79.80;;;;;;5115265;28;20039;-78
2022/04/22 03:36:12;;;;;;;12.60;7.10;;;8.90;79.60;;;;;;5098306;28;20043;-78
2022/04/22 03:38:38;;;;;;;10.77;6.05;;;8.90;79.80;;;;;;5098542;28;20046;-78
2022/04/22 03:41:03;;;;;;;8.88;6.32;;;8.80;79.90;;;;;;5098287;28;20038;-77
2022/04/22 03:43:29;;;;;;;9.18;6.07;;;8.80;79.80;;;;;;5098340;28;20043;-78
2022/04/22 03:45:55;;;;;;;10.50;6.28;;;8.80;79.50;;;;;;5097837;28;20035;-78
2022/04/22 03:48:21;;;;;;;11.80;6.22;;;8.80;79.50;;;;;;5115481;28;20039;-78
2022/04/22 03:50:47;;;;;;;9.20;6.25;;;8.70;79.50;;;;;;5081423;28;20413;-78
2022/04/22 03:53:12;;;;;;;12.52;7.22;;;8.70;79.60;;;;;;5115334;28;20452;-78
2022/04/22 03:55:40;;;;;;;11.60;7.07;;;8.70;79.60;;;;;;5115056;28;20419;-78
2022/04/22 03:58:11;;;;;;;8.75;6.30;;;8.70;79.50;;;;;;5115140;28;20047;-77
2022/04/22 04:00:46;;;;;;;11.27;5.97;;;8.60;79.50;;;;;;5098243;28;20433;-78
2022/04/22 04:03:13;;;;;;;;;;;8.60;79.70;;;;;;5098999;27;20039;-78
2022/04/22 04:05:39;;;;;;;9.90;5.97;;;8.50;80.50;;;;;;5118413;27;20351;-78
2022/04/22 04:08:06;;;;;;;8.43;6.25;;;8.50;79.60;;;;;;5118661;27;20490;-78
2022/04/22 04:16:01;;;;;;;8.10;5.90;;;8.50;80.00;;;;;;5118147;27;20379;-77
2022/04/22 04:18:30;;;;;;;11.60;6.00;;;8.50;80.40;;;;;;5101356;27;20049;-78
2022/04/22 04:23:41;;;;;;;8.45;5.88;;;8.30;80.60;;;;;;5118322;27;20126;-77
2022/04/22 04:26:10;;;;;;;10.98;6.57;;;8.30;80.10;;;;;;5118567;27;20049;-78
2022/04/22 04:28:37;;;;;;;7.65;6.38;;;8.30;80.20;;;;;;5118648;27;20467;-78
2022/04/22 04:31:04;;;;;;;7.97;6.38;;;8.30;80.10;;;;;;5101332;27;20035;-78
2022/04/22 04:33:31;;;;;;;8.70;5.07;;;8.30;80.30;;;;;;5118291;27;20047;-78
2022/04/22 04:35:58;;;;;;;8.98;6.57;;;8.30;80.30;;;;;;5101527;27;20039;-78
2022/04/22 04:38:25;;;;;;;9.57;5.75;;;8.30;80.50;;;;;;5118415;27;20043;-78
2022/04/22 04:40:51;;;;;;;9.35;6.28;;;8.20;80.00;;;;;;5101126;27;20074;-78
2022/04/22 04:43:18;;;;;;;8.43;5.60;;;8.20;80.00;;;;;;5118110;27;20096;-78
2022/04/22 04:45:45;;;;;;;9.65;5.72;;;8.20;80.60;;;;;;5101454;27;20388;-78
2022/04/22 04:48:11;;;;;;;8.13;5.32;;;8.20;80.30;;;;;;5118251;27;20031;-78
2022/04/22 04:50:40;;;;;;;10.95;5.43;;;8.20;80.80;;;;;;5100922;27;20083;-77
2022/04/22 04:53:06;;;;;;;9.20;5.68;;;8.20;80.70;;;;;;5117981;27;20046;-78
2022/04/22 04:55:31;;;;;;;8.70;5.50;;;8.20;80.80;;;;;;5100872;27;20039;-78
2022/04/22 04:57:57;;;;;;;8.35;5.65;;;8.20;80.40;;;;;;5117849;27;20423;-78
2022/04/22 05:00:23;;;;;;;7.10;4.53;;;8.30;80.70;;;;;;5117628;27;20118;-77
2022/04/22 05:02:48;;;;;;;9.15;6.13;;;8.30;80.30;;;;;;5100794;27;20027;-78
2022/04/22 05:05:14;;;;;;;9.38;6.50;;;8.30;80.40;;;;;;5100925;27;20087;-78
2022/04/22 05:07:56;;;;;;;10.70;5.85;;;8.30;80.40;;;;;;5100889;27;20418;-77
2022/04/22 05:10:22;;;;;;;8.48;5.45;;;8.30;80.40;;;;;;5095165;27;20039;-77
2022/04/22 05:12:48;;;;;;;6.13;5.10;;;8.30;80.10;;;;;;5100761;27;20099;-78
2022/04/22 05:15:17;;;;;;;8.40;5.60;;;8.30;80.40;;;;;;5116282;27;20047;-78
2022/04/22 05:17:43;;;;;;;7.53;5.05;;;8.30;80.70;;;;;;5117404;27;20039;-77
2022/04/22 05:20:10;;;;;;;7.85;5.30;;;8.30;80.70;;;;;;5083433;27;20043;-78
2022/04/22 05:22:36;;;;;;;6.95;4.72;;;8.30;80.70;;;;;;5117229;27;20100;-78
2022/04/22 05:25:04;;;;;;;9.50;5.80;;;8.30;80.70;;;;;;5117310;27;20047;-78
2022/04/22 05:27:31;;;;;;;9.27;4.82;;;8.30;80.70;;;;;;5117158;27;20035;-77
2022/04/22 05:32:42;;;;;;;6.60;4.93;;;8.40;80.10;;;;;;5088488;27;20099;-78
2022/04/22 05:35:09;;;;;;;5.80;4.32;;;8.40;80.00;;;;;;5117243;27;20523;-77
2022/04/22 05:37:45;;;;;;;9.38;5.88;;;8.40;80.30;;;;;;5116988;27;20047;-78
2022/04/22 05:40:13;;;;;;;7.70;4.78;;;8.50;80.60;;;;;;5083017;27;20526;-79
2022/04/22 05:42:39;;;;;;;10.55;5.50;;;8.50;80.50;;;;;;5100230;27;20053;-78
2022/04/22 05:45:07;;;;;;;9.30;4.13;;;8.60;80.00;;;;;;5116710;27;20042;-78
2022/04/22 05:47:34;;;;;;;8.25;5.05;;;8.60;79.70;;;;;;5116767;27;20035;-78
2022/04/22 05:50:00;;;;;;;6.65;4.63;;;8.70;79.40;;;;;;5099733;27;20043;-78
2022/04/22 05:52:26;;;;;;;9.48;4.47;;;8.70;79.30;;;;;;5116716;27;20122;-78
2022/04/22 05:54:53;;;;;;;6.50;4.57;;;8.70;79.40;;;;;;5082965;27;20133;-79
2022/04/22 05:57:19;;;;;;;4.72;3.78;;;8.80;79.30;;;;;;5099936;27;20481;-78
2022/04/22 05:59:45;;;;;;;6.65;3.63;;;8.80;79.10;;;;;;5116545;27;20051;-79
2022/04/22 06:02:11;;;;;;;5.32;3.88;;;8.90;79.10;;;;;;5116514;27;20376;-78
2022/04/22 06:04:37;;;;;;;4.75;3.47;;;9.00;78.80;;;;;;5099484;27;20035;-78
2022/04/22 06:07:02;;;;;;;7.22;4.15;;;9.00;78.50;;;;;;5082788;27;20042;-78
2022/04/22 06:12:13;;;;;;;6.90;3.65;;;9.10;78.10;;;;;;5116286;27;20054;-78
2022/04/22 06:14:39;;;;;;;5.70;3.53;;;9.10;78.00;;;;;;5116245;27;20078;-78
2022/04/22 06:17:05;;;;;;;7.97;4.03;;;9.20;77.90;;;;;;5082628;27;20057;-78
2022/04/22 06:19:31;;;;;;;6.75;3.78;;;9.30;77.50;;;;;;5116194;27;20031;-77
2022/04/22 06:21:57;;;;;;;4.50;3.38;;;9.30;77.40;;;;;;5099162;27;20092;-79
2022/04/22 06:24:23;;;;;;;5.78;3.75;;;9.40;77.40;;;;;;5116449;27;20130;-77
2022/04/22 06:26:49;;;;;;;8.35;3.28;;;9.40;77.30;;;;;;5116205;27;20378;-79
2022/04/22 06:29:15;;;;;;;6.45;4.07;;;9.50;77.10;;;;;;5099381;27;20039;-77
2022/04/22 06:31:41;;;;;;;5.53;3.20;;;9.50;76.80;;;;;;5116037;27;20043;-78
2022/04/22 06:34:06;;;;;;;4.70;3.10;;;9.60;76.80;;;;;;5082264;27;20127;-77
2022/04/22 06:36:32;;;;;;;4.35;3.42;;;9.60;76.50;;;;;;5099158;27;20042;-77
2022/04/22 06:38:59;;;;;;;5.15;3.58;;;9.70;76.30;;;;;;5116060;28;20045;-79
2022/04/22 06:46:55;;;;;;;;;;;10.00;75.70;;;;;;5116146;27;20050;-78
2022/04/22 06:49:21;;;;;;;4.00;3.00;;;10.00;75.70;;;;;;5115903;27;19919;-78
2022/04/22 06:51:46;;;;;;;4.82;3.00;;;10.10;75.20;;;;;;5115813;28;20126;-78
2022/04/22 06:54:12;;;;;;;4.78;3.33;;;10.20;75.20;;;;;;5098721;28;20067;-78
2022/04/22 06:56:42;;;;;;;5.00;2.83;;;10.30;74.60;;;;;;5098659;27;20054;-77
2022/04/22 06:59:08;;;;;;;3.85;2.67;;;10.30;74.80;;;;;;5115831;28;20487;-78
2022/04/22 07:01:36;;;;;;;6.68;2.95;;;10.50;74.40;;;;;;5115510;27;20062;-78
2022/04/22 07:04:02;;;;;;;4.90;2.72;;;10.60;73.80;;;;;;5115581;28;20042;-78
2022/04/22 07:06:29;;;;;;;3.88;2.17;;;10.60;74.20;;;;;;5115526;28;20039;-78
2022/04/22 07:08:55;;;;;;;4.72;2.45;;;10.70;74.10;;;;;;5115510;28;20043;-77
2022/04/22 07:11:27;;;;;;;6.22;2.90;;;10.80;73.70;;;;;;5115427;28;20039;-78
2022/04/22 07:13:56;;;;;;;7.55;3.00;;;10.90;72.60;;;;;;5115463;28;20095;-78
2022/04/22 07:16:22;;;;;;;3.92;2.50;;;10.90;72.50;;;;;;5098415;28;20039;-78
2022/04/22 07:18:48;;;;;;;4.63;2.60;;;11.00;72.50;;;;;;5098635;28;20041;-78
2022/04/22 07:21:14;;;;;;;4.60;2.63;;;11.10;72.20;;;;;;5115432;28;20130;-78
2022/04/22 07:23:40;;;;;;;5.38;2.72;;;11.20;72.30;;;;;;5115237;28;20100;-78
2022/04/22 07:26:10;;;;;;;4.50;2.58;;;11.30;72.10;;;;;;5115283;28;20042;-78
2022/04/22 07:28:39;;;;;;;3.40;2.92;;;11.40;71.40;;;;;;5115310;28;20043;-78
2022/04/22 07:31:08;;;;;;;4.05;2.65;;;11.50;71.50;;;;;;5115454;28;20039;-78
2022/04/22 07:33:34;;;;;;;6.60;2.35;;;11.60;71.20;;;;;;5115621;28;20387;-77
2022/04/22 07:36:00;;;;;;;8.68;2.70;;;11.70;70.50;;;;;;5098598;28;20046;-77
2022/04/22 07:38:26;;;;;;;4.10;2.67;;;11.70;69.50;;;;;;5116212;27;20043;-78
2022/04/22 07:40:52;;;;;;;4.10;2.50;;;11.90;70.50;;;;;;5119241;27;20081;-78
2022/04/22 07:48:53;;;;;;;4.28;2.50;;;12.20;70.40;;;;;;5104648;27;20039;-78
2022/04/22 07:51:19;;;;;;;3.95;2.40;;;12.30;69.70;;;;;;5102490;27;20132;-78
2022/04/22 07:53:45;;;;;;;6.65;2.85;;;12.40;68.70;;;;;;5119253;27;20125;-77
2022/04/22 07:56:11;;;;;;;5.00;2.25;;;12.50;68.00;;;;;;5102123;27;20121;-78
2022/04/22 07:58:37;;;;;;;5.05;2.42;;;12.50;68.50;;;;;;5118987;27;20077;-78
2022/04/22 08:01:03;;;;;;;3.75;2.30;;;12.60;67.60;;;;;;5118871;27;20084;-78
2022/04/22 08:03:28;;;;;;;2.10;1.60;;;12.80;67.00;;;;;;5118881;27;20038;-77
2022/04/22 08:05:55;;;;;;;4.25;2.20;;;12.90;67.20;;;;;;5101796;27;20039;-78
2022/04/22 08:08:21;;;;;;;4.13;2.47;;;13.00;67.40;;;;;;5119021;27;20480;-78
2022/04/22 08:10:47;;;;;;;5.75;2.38;;;13.10;67.60;;;;;;5118789;27;20078;-77
2022/04/22 08:13:14;;;;;;;5.50;2.63;;;13.10;67.30;;;;;;5085232;27;20054;-78
2022/04/22 08:15:40;;;;;;;4.25;2.22;;;13.30;67.50;;;;;;5118763;27;20051;-78
2022/04/22 08:18:06;;;;;;;4.97;2.13;;;13.30;67.20;;;;;;5102103;27;20043;-78
2022/04/22 08:20:33;;;;;;;10.70;2.50;;;13.40;67.40;;;;;;5084648;27;20035;-79
2022/04/22 08:23:00;;;;;;;4.38;2.05;;;13.50;66.90;;;;;;5118420;27;20047;-79
2022/04/22 08:25:26;;;;;;;6.25;2.63;;;13.50;66.50;;;;;;5101580;27;20482;-79
2022/04/22 08:27:51;;;;;;;4.28;2.40;;;13.60;65.10;;;;;;5101379;27;20042;-78
2022/04/22 08:30:17;;;;;;;4.80;2.63;;;13.70;65.80;;;;;;5118562;27;20035;-78
2022/04/22 08:32:43;;;;;;;4.72;2.30;;;13.80;64.60;;;;;;5118475;27;20092;-80
2022/04/22 08:35:09;;;;;;;5.85;2.88;;;13.90;64.90;;;;;;5101526;27;20031;-78
2022/04/22 08:37:37;;;;;;;6.00;2.35;;;13.80;63.50;;;;;;5101353;27;20047;-77
2022/04/22 08:40:10;;;;;;;4.82;2.60;;;13.90;63.50;;;;;;5118263;27;20050;-78
2022/04/22 08:42:38;;;;;;;6.57;2.70;;;14.00;63.50;;;;;;5117505;27;20085;-79
2022/04/22 08:45:06;;;;;;;4.25;2.65;;;14.20;63.00;;;;;;5118385;27;20391;-78
2022/04/22 08:50:16;;;;;;;;;;;14.40;63.10;;;;;;5104141;27;20039;-77
2022/04/22 08:52:49;;;;;;;4.35;2.70;;;14.50;63.00;;;;;;5118380;27;19938;-78
2022/04/22 08:55:18;;;;;;;5.55;2.65;;;14.50;63.20;;;;;;5118215;27;20100;-78
2022/04/22 08:57:47;;;;;;;3.47;2.42;;;14.60;63.00;;;;;;5117917;27;20667;-79
2022/04/22 09:00:14;;;;;;;4.20;2.55;;;14.60;62.60;;;;;;5100951;27;20042;-78
2022/04/22 09:02:40;;;;;;;3.88;1.98;;;14.70;62.20;;;;;;5101295;27;20411;-78
2022/04/22 09:05:08;;;;;;;5.75;2.78;;;14.70;62.20;;;;;;5100862;27;20035;-78
2022/04/22 09:07:34;;;;;;;3.83;2.03;;;14.80;61.70;;;;;;5117867;27;20518;-77
2022/04/22 09:10:01;;;;;;;4.70;2.28;;;14.90;61.20;;;;;;5117867;27;20047;-78
2022/04/22 09:12:27;;;;;;;5.70;2.78;;;15.00;61.20;;;;;;5084195;27;20492;-77
2022/04/22 09:14:56;;;;;;;4.55;2.42;;;15.00;60.80;;;;;;5100605;27;20046;-79
2022/04/22 09:17:23;;;;;;;3.05;2.03;;;15.10;60.30;;;;;;5117523;27;20054;-78
2022/04/22 09:19:51;;;;;;;6.00;2.55;;;15.20;60.30;;;;;;5100468;27;20046;-78
2022/04/22 09:22:34;;;;;;;5.35;2.67;;;15.30;59.50;;;;;;5118964;27;20491;-78
2022/04/22 09:25:00;;;;;;;5.00;2.28;;;15.40;59.70;;;;;;5117254;27;20055;-78
2022/04/22 09:27:33;;;;;;;6.05;2.20;;;15.50;59.50;;;;;;5100478;27;20040;-78
2022/04/22 09:30:00;;;;;;;4.43;2.40;;;15.60;60.20;;;;;;5117474;27;20039;-78
2022/04/22 09:32:32;;;;;;;4.28;2.30;;;15.80;58.90;;;;;;5117273;27;20047;-78
2022/04/22 09:35:17;;;;;;;5.13;2.42;;;15.90;58.90;;;;;;5117086;27;20051;-78
2022/04/22 09:43:34;;;;;;;4.45;2.40;;;16.10;59.30;;;;;;5103976;27;20075;-79
2022/04/22 09:46:01;;;;;;;5.53;2.75;;;16.30;57.00;;;;;;5117152;27;20038;-77
2022/04/22 09:48:44;;;;;;;4.45;2.00;;;16.40;59.00;;;;;;5116838;27;20495;-78
2022/04/22 09:51:22;;;;;;;4.68;3.05;;;16.40;56.80;;;;;;5116841;27;20038;-77
2022/04/22 09:54:05;;;;;;;4.80;2.42;;;16.50;57.50;;;;;;5116717;27;20064;-77
2022/04/22 09:56:34;;;;;;;4.45;2.47;;;16.60;57.70;;;;;;5116747;27;20039;-78
2022/04/22 09:59:23;;;;;;;4.10;2.80;;;16.70;56.60;;;;;;5116643;27;20069;-78
2022/04/22 10:01:49;;;;;;;5.32;2.05;;;16.90;55.10;;;;;;5098789;27;20050;-78
2022/04/22 10:04:17;;;;;;;7.60;2.45;;;16.90;56.80;;;;;;5116826;27;20039;-77
2022/04/22 10:06:45;;;;;;;8.23;3.15;;;17.00;54.40;;;;;;5117178;27;20035;-80
2022/04/22 10:09:14;;;;;;;3.60;2.40;;;17.10;56.00;;;;;;5117640;27;20069;-78
2022/04/22 10:11:41;;;;;;;4.45;2.35;;;17.20;55.60;;;;;;5100532;27;20123;-78
2022/04/22 10:14:11;;;;;;;5.07;2.58;;;17.20;55.60;;;;;;5100602;27;20035;-78
2022/04/22 10:16:37;;;;;;;3.10;2.35;;;17.30;54.60;;;;;;5099755;27;20126;-78
2022/04/22 10:19:04;;;;;;;4.72;2.72;;;17.40;54.50;;;;;;5116193;27;20059;-78
2022/04/22 10:21:31;;;;;;;5.82;2.72;;;17.40;54.30;;;;;;5116077;27;20262;-78
2022/04/22 10:23:58;;;;;;;8.98;2.80;;;17.50;54.70;;;;;;5116180;27;20507;-78
2022/04/22 10:26:26;;;;;;;5.10;3.35;;;17.50;54.70;;;;;;5099335;27;20039;-77
2022/04/22 10:28:53;;;;;;;6.15;3.28;;;17.50;54.90;;;;;;5116432;27;20479;-77
2022/04/22 10:31:20;;;;;;;3.50;2.95;;;17.60;55.10;;;;;;5116057;27;20049;-76
2022/04/22 10:33:47;;;;;;;5.90;2.85;;;17.60;56.30;;;;;;5116195;27;20049;-78
2022/04/22 10:36:14;;;;;;;8.05;3.25;;;17.70;55.80;;;;;;5115687;27;20085;-78
2022/04/22 10:38:43;;;;;;;7.50;3.15;;;17.80;57.00;;;;;;5115829;27;20054;-77
2022/04/22 10:41:18;;;;;;;5.07;2.92;;;17.90;57.10;;;;;;5115923;27;20031;-77
2022/04/22 10:47:13;;;;;;;5.57;3.22;;;18.00;57.60;;;;;;5116127;27;20491;-79
2022/04/22 10:49:17;;;;;;;4.90;3.40;;;17.90;57.60;;;;;;5102366;27;20391;-79
2022/04/22 10:52:13;;;;;;;8.57;3.30;;;17.60;58.60;;;;;;5099444;27;20049;-76
2022/04/22 10:54:54;;;;;;;5.90;3.28;;;17.60;60.10;;;;;;5104474;27;20141;-77
2022/04/22 10:57:32;;;;;;;6.63;3.28;;;17.50;58.80;;;;;;5116472;27;20042;-76
2022/04/22 11:00:07;;;;;;;5.53;3.20;;;17.50;59.90;;;;;;5099149;27;20035;-79
2022/04/22 11:02:40;;;;;;;4.97;3.33;;;17.50;60.00;;;;;;5115914;28;20467;-79
2022/04/22 11:05:20;;;;;;;4.40;2.80;;;17.50;58.90;;;;;;5099116;28;20075;-77
2022/04/22 11:07:53;;;;;;;5.57;3.75;;;17.50;59.50;;;;;;5115846;28;20174;-78
2022/04/22 11:10:22;;;;;;;6.13;3.67;;;17.50;59.90;;;;;;5115489;28;20039;-77
2022/04/22 11:12:57;;;;;;;7.07;4.07;;;17.50;59.70;;;;;;5117252;27;20047;-78
2022/04/22 11:15:47;;;;;;;5.55;3.40;;;17.40;59.40;;;;;;5102669;27;20047;-77
2022/04/22 11:18:17;;;;;;;5.80;3.20;;;17.40;60.10;;;;;;5119807;27;20126;-78
2022/04/22 11:20:51;;;;;;;7.93;4.18;;;17.50;59.80;;;;;;5119625;27;20032;-78
2022/04/22 11:23:18;;;;;;;6.88;3.38;;;17.40;58.90;;;;;;5119612;27;20047;-78
2022/04/22 11:25:44;;;;;;;6.20;4.05;;;17.50;60.20;;;;;;5119545;27;20050;-79
2022/04/22 11:28:10;;;;;;;6.35;4.22;;;17.60;60.10;;;;;;5119488;27;20572;-79
2022/04/22 11:30:37;;;;;;;11.00;4.53;;;17.70;60.50;;;;;;5119451;27;20035;-77
2022/04/22 11:33:14;;;;;;;8.23;3.95;;;17.70;60.30;;;;;;5119442;27;20099;-78
2022/04/22 11:35:40;;;;;;;5.00;4.00;;;17.90;60.30;;;;;;5119252;27;20059;-78
2022/04/22 11:38:07;;;;;;;7.68;4.15;;;18.00;60.40;;;;;;5102573;27;20054;-78
2022/04/22 11:40:40;;;;;;;9.20;4.53;;;18.00;59.60;;;;;;5086268;27;20057;-80
2022/04/22 11:43:16;;;;;;;9.00;3.97;;;18.20;59.70;;;;;;5119953;27;20536;-79
2022/04/22 11:45:46;;;;;;;6.88;4.03;;;18.30;59.00;;;;;;5119635;27;20042;-78
2022/04/22 11:48:14;;;;;;;7.57;4.88;;;18.40;58.70;;;;;;5119425;27;20035;-77
2022/04/22 11:50:42;;;;;;;8.55;4.53;;;18.50;58.80;;;;;;5085529;27;20066;-78
2022/04/22 11:53:17;;;;;;;7.10;4.30;;;18.60;58.50;;;;;;5119382;27;20482;-78
2022/04/22 11:55:47;;;;;;;7.43;4.38;;;18.70;57.70;;;;;;5119341;27;20042;-78
2022/04/22 11:58:20;;;;;;;10.18;5.03;;;18.70;57.40;;;;;;5085662;27;20042;-79
2022/04/22 12:06:20;;;;;;;9.05;4.57;;;18.80;57.60;;;;;;5119289;27;20096;-78
2022/04/22 12:09:06;;;;;;;5.10;4.15;;;18.90;57.20;;;;;;5101885;27;20027;-78
2022/04/22 12:11:41;;;;;;;7.00;4.18;;;19.00;57.10;;;;;;5118851;27;20046;-79
2022/04/22 12:14:07;;;;;;;8.23;4.40;;;19.10;55.50;;;;;;5118777;27;20039;-78
2022/04/22 12:16:33;;;;;;;6.40;4.43;;;19.30;56.50;;;;;;5101675;27;20035;-78
2022/04/22 12:19:00;;;;;;;6.43;4.47;;;19.40;56.20;;;;;;5118888;27;20035;-78
2022/04/22 12:21:26;;;;;;;5.57;3.85;;;19.50;55.50;;;;;;5118561;27;20043;-79
2022/04/22 12:23:57;;;;;;;6.43;3.95;;;19.60;55.00;;;;;;5100786;28;20057;-78
2022/04/22 12:26:27;;;;;;;6.78;4.50;;;19.60;54.20;;;;;;5118547;27;20047;-79
2022/04/22 12:29:08;;;;;;;8.63;4.90;;;19.80;53.90;;;;;;5118576;27;20031;-79
2022/04/22 12:31:36;;;;;;;7.82;4.10;;;19.90;55.60;;;;;;5118425;27;20035;-78
2022/04/22 12:34:07;;;;;;;6.88;5.00;;;20.00;55.10;;;;;;5118704;27;20035;-78
2022/04/22 12:36:38;;;;;;;10.45;5.03;;;20.10;54.20;;;;;;5118215;27;20043;-78
2022/04/22 12:39:06;;;;;;;7.20;4.30;;;20.10;54.70;;;;;;5118248;27;20487;-79
2022/04/22 12:41:43;;;;;;;6.28;4.43;;;20.20;54.20;;;;;;5118079;27;20558;-78
2022/04/22 12:44:14;;;;;;;7.82;4.30;;;20.30;52.40;;;;;;5118720;27;20472;-78
2022/04/22 12:52:29;;;;;;;5.55;4.15;;;20.50;54.90;;;;;;5117992;27;20086;-79
2022/04/22 12:55:08;;;;;;;7.97;5.18;;;20.30;49.80;;;;;;5101056;27;20114;-79
2022/04/22 12:57:36;;;;;;;8.73;3.88;;;20.50;53.30;;;;;;5100981;27;20125;-79
2022/04/22 13:00:17;;;;;;;5.95;5.05;;;20.50;53.00;;;;;;5101029;27;20046;-78
2022/04/22 13:02:43;;;;;;;6.78;3.83;;;20.70;50.70;;;;;;5117830;27;20035;-78
2022/04/22 13:05:19;;;;;;;7.03;4.88;;;20.90;51.40;;;;;;5100516;27;20039;-79
2022/04/22 13:07:52;;;;;;;8.55;4.95;;;21.10;51.80;;;;;;5117941;27;20092;-79
2022/04/22 13:10:22;;;;;;;12.40;5.03;;;21.00;52.60;;;;;;5083860;27;20035;-78
2022/04/22 13:12:52;;;;;;;7.13;5.57;;;21.00;53.20;;;;;;5117553;27;20126;-78
2022/04/22 13:15:19;;;;;;;7.55;5.40;;;20.90;53.30;;;;;;5117953;27;20090;-80
2022/04/22 13:17:50;;;;;;;7.70;5.03;;;20.90;53.40;;;;;;5117582;27;20115;-78
2022/04/22 13:20:18;;;;;;;9.43;4.70;;;20.90;54.00;;;;;;5100694;27;20038;-79
2022/04/22 13:22:46;;;;;;;6.45;5.25;;;20.80;54.30;;;;;;5117052;27;20051;-78
2022/04/22 13:25:13;;;;;;;7.82;5.50;;;20.80;54.10;;;;;;5117273;27;20050;-79
2022/04/22 13:27:40;;;;;;;8.20;5.50;;;20.80;54.10;;;;;;5117268;27;20046;-78
2022/04/22 13:30:07;;;;;;;8.60;5.07;;;20.90;54.10;;;;;;5117674;27;20092;-78
2022/04/22 13:32:33;;;;;;;7.88;5.07;;;20.90;53.70;;;;;;5100098;27;20527;-79
2022/04/22 13:34:58;;;;;;;10.73;5.55;;;20.90;54.10;;;;;;5117211;27;20123;-81
2022/04/22 13:37:24;;;;;;;8.23;5.57;;;20.90;53.10;;;;;;5099312;27;20172;-80
2022/04/22 13:39:50;;;;;;;7.50;5.47;;;21.00;53.50;;;;;;5116834;27;20054;-79
2022/04/22 13:42:18;;;;;;;7.40;5.65;;;21.10;53.90;;;;;;5100248;27;20035;-81
2022/04/22 13:53:01;;;;;;;10.20;6.00;;;21.30;51.60;;;;;;5122658;27;20085;-83
2022/04/22 13:55:33;;;;;;;9.18;5.38;;;21.40;52.20;;;;;;5108684;27;20062;-81
2022/04/22 13:58:02;;;;;;;10.02;5.68;;;21.50;52.00;;;;;;5091014;27;20042;-81
2022/04/22 14:00:28;;;;;;;7.63;6.00;;;21.70;52.40;;;;;;5121905;27;20039;-80